Time;durP1;ratioP1;P1;durP2;ratioP2;P2;SDS_P1;SDS_P2;PMS_P1;PMS_P2;Temp;Humidity;BMP_temperature;BMP_pressure;BME280_temperature;BME280_humidity;BME280_pressure;Samples;Min_cycle;Max_cycle;Signal;HPM_P1;HPM_P2
2021/06/30 04:39:54;;;;;;;10.75;7.83;;;;;;;21.14;74.10;99869.39;1723814;80;21139;-36
2021/06/30 04:42:21;;;;;;;9.23;7.00;;;;;;;21.33;73.84;99873.34;1779420;79;21141;-43
2021/06/30 04:44:48;;;;;;;15.48;6.87;;;;;;;21.43;73.14;99869.28;1767332;80;21143;-43
2021/06/30 04:47:15;;;;;;;9.60;7.12;;;;;;;21.47;72.55;99873.98;1766776;78;21074;-42
2021/06/30 04:49:42;;;;;;;13.53;7.85;;;;;;;21.51;72.76;99875.52;1770890;79;21032;-43
2021/06/30 04:52:09;;;;;;;13.50;7.72;;;;;;;21.60;72.68;99876.87;1766800;81;21042;-42
2021/06/30 04:54:35;;;;;;;15.15;7.33;;;;;;;21.69;72.30;99873.27;1751256;80;21050;-38
2021/06/30 04:57:04;;;;;;;13.48;8.03;;;;;;;21.81;72.28;99866.44;1736973;81;21024;-42
2021/06/30 04:59:31;;;;;;;9.80;7.28;;;;;;;21.93;73.12;99865.78;1781190;80;21068;-42
2021/06/30 05:01:58;;;;;;;16.77;7.72;;;;;;;22.04;73.48;99865.20;1771826;80;21009;-43
2021/06/30 05:04:24;;;;;;;10.18;6.60;;;;;;;22.16;72.87;99870.38;1762482;80;21001;-37
2021/06/30 05:06:51;;;;;;;16.25;6.65;;;;;;;22.28;70.58;99865.23;1778358;80;21025;-37
2021/06/30 05:09:18;;;;;;;10.82;6.60;;;;;;;22.44;69.10;99869.24;1785591;80;21570;-37
2021/06/30 05:11:44;;;;;;;13.38;6.33;;;;;;;22.56;68.24;99869.89;1778945;79;21565;-42
2021/06/30 05:14:13;;;;;;;11.93;6.00;;;;;;;22.67;67.54;99867.06;1775374;80;21118;-43
2021/06/30 05:16:39;;;;;;;11.08;6.53;;;;;;;22.77;67.00;99876.27;1781522;80;21085;-37
2021/06/30 05:19:06;;;;;;;8.78;6.62;;;;;;;22.84;66.79;99870.52;1779951;79;21066;-42
2021/06/30 05:21:33;;;;;;;15.05;7.17;;;;;;;22.93;66.53;99871.81;1781509;80;21092;-42
2021/06/30 05:24:00;;;;;;;8.53;6.85;;;;;;;23.05;66.66;99871.10;1782645;80;21062;-37
2021/06/30 05:26:27;;;;;;;12.13;6.10;;;;;;;23.16;66.28;99865.15;1778651;80;21129;-42
2021/06/30 05:28:54;;;;;;;7.17;6.47;;;;;;;23.25;66.28;99870.41;1778964;80;21070;-42
2021/06/30 05:31:20;;;;;;;8.68;6.58;;;;;;;23.34;66.16;99861.39;1779242;79;21112;-37
2021/06/30 05:33:47;;;;;;;10.48;7.17;;;;;;;23.42;65.87;99862.73;1776912;79;21139;-37
2021/06/30 05:36:14;;;;;;;13.03;5.90;;;;;;;23.50;65.93;99864.01;1774175;79;21597;-43
2021/06/30 05:38:42;;;;;;;19.05;8.43;;;;;;;23.58;65.38;99868.39;1780468;80;21653;-37
2021/06/30 05:41:12;;;;;;;9.38;6.12;;;;;;;23.69;65.23;99868.27;1764254;79;21048;-36
2021/06/30 05:43:39;;;;;;;20.57;11.78;;;;;;;23.81;64.88;99872.84;1766558;80;21096;-41
2021/06/30 05:46:06;;;;;;;7.25;5.92;;;;;;;23.93;64.08;99872.57;1772156;78;21606;-42
2021/06/30 05:48:34;;;;;;;6.00;5.40;;;;;;;24.05;63.58;99881.16;1765427;80;21592;-42
2021/06/30 05:51:01;;;;;;;6.20;5.45;;;;;;;24.11;61.79;99876.28;1788839;80;21037;-42
2021/06/30 05:53:28;;;;;;;7.15;5.62;;;;;;;24.20;62.04;99879.36;1762610;79;21666;-43
2021/06/30 05:55:55;;;;;;;5.53;4.97;;;;;;;24.26;61.28;99871.80;1773426;79;21072;-42
2021/06/30 06:25:12;;;;;;;8.80;4.20;;;;;;;25.26;54.87;99888.95;1741091;80;21163;-42
2021/06/30 06:27:40;;;;;;;8.88;3.62;;;;;;;25.36;54.05;99893.22;1777146;80;21048;-37
2021/06/30 06:30:11;;;;;;;4.35;3.95;;;;;;;25.40;54.13;99895.59;1775080;80;20994;-36
2021/06/30 06:32:38;;;;;;;5.87;3.30;;;;;;;25.42;53.65;99890.12;1779471;79;21059;-37
2021/06/30 06:35:06;;;;;;;5.12;3.52;;;;;;;25.47;51.28;99894.21;1773538;80;21538;-37
2021/06/30 06:37:36;;;;;;;3.65;3.00;;;;;;;25.52;50.29;99892.56;1775443;79;21550;-37
2021/06/30 06:40:08;;;;;;;4.25;3.35;;;;;;;25.58;51.69;99893.48;1754252;79;21047;-43
2021/06/30 06:42:37;;;;;;;4.70;3.40;;;;;;;25.63;50.98;99890.02;1743934;80;21058;-42
2021/06/30 06:45:09;;;;;;;6.17;4.00;;;;;;;25.70;51.04;99888.63;1729718;80;20982;-42
2021/06/30 06:47:36;;;;;;;4.80;3.45;;;;;;;25.77;51.15;99884.20;1690926;82;21144;-36
2021/06/30 06:50:09;;;;;;;4.35;3.83;;;;;;;25.84;50.73;99885.48;1757554;79;21072;-41
2021/06/30 06:52:38;;;;;;;3.85;3.45;;;;;;;25.93;50.18;99877.67;1754111;80;21624;-38
2021/06/30 06:55:10;;;;;;;3.85;3.47;;;;;;;26.06;50.15;99883.51;1772549;79;21427;-38
2021/06/30 06:57:36;;;;;;;6.17;2.92;;;;;;;26.14;50.85;99876.63;1713530;80;21108;-37
2021/06/30 07:00:05;;;;;;;6.08;3.60;;;;;;;26.26;49.26;99876.23;1740832;79;21012;-37
2021/06/30 07:02:32;;;;;;;3.75;3.30;;;;;;;26.32;48.86;99878.47;1742888;80;21645;-37
2021/06/30 07:04:58;;;;;;;4.05;3.52;;;;;;;26.34;48.96;99875.22;1728241;80;21106;-37
2021/06/30 07:07:26;;;;;;;3.60;3.10;;;;;;;26.38;48.94;99876.72;1742159;81;21570;-36
2021/06/30 07:09:54;;;;;;;5.87;3.65;;;;;;;26.42;47.63;99876.88;1717517;81;21094;-37
2021/06/30 07:12:22;;;;;;;5.22;3.47;;;;;;;26.43;47.04;99870.55;1734404;81;21065;-42
2021/06/30 07:14:49;;;;;;;6.08;3.17;;;;;;;26.44;48.36;99874.97;1758195;80;21139;-42
2021/06/30 07:17:15;;;;;;;5.33;3.62;;;;;;;26.48;48.17;99873.75;1704957;82;21061;-42
2021/06/30 07:19:44;;;;;;;4.22;2.90;;;;;;;26.53;46.85;99876.96;1748975;80;21085;-42
2021/06/30 07:22:11;;;;;;;7.97;3.47;;;;;;;26.58;46.34;99879.80;1740293;80;21036;-42
2021/06/30 07:24:37;;;;;;;6.22;3.30;;;;;;;26.65;46.35;99875.70;1719437;80;21041;-37
2021/06/30 07:27:04;;;;;;;8.00;3.52;;;;;;;26.69;45.62;99874.02;1705392;83;21572;-37
2021/06/30 07:29:31;;;;;;;7.22;3.12;;;;;;;26.69;45.55;99875.36;1710572;82;21581;-36
2021/06/30 07:31:58;;;;;;;5.37;3.37;;;;;;;26.74;45.57;99879.91;1717431;82;21029;-42
2021/06/30 07:34:25;;;;;;;7.60;3.35;;;;;;;26.77;45.23;99874.79;1702829;82;21038;-42
2021/06/30 07:36:54;;;;;;;7.05;3.30;;;;;;;26.78;44.50;99873.33;1716672;81;21516;-42
2021/06/30 07:39:24;;;;;;;8.55;3.12;;;;;;;26.83;44.91;99870.31;1713452;82;21513;-42
2021/06/30 07:41:51;;;;;;;4.28;2.83;;;;;;;26.86;44.05;99875.47;1684464;82;21023;-43
2021/06/30 07:44:19;;;;;;;4.58;3.15;;;;;;;26.91;44.59;99875.98;1698769;83;21172;-44
2021/06/30 07:46:45;;;;;;;7.72;3.33;;;;;;;26.97;44.12;99872.84;1684099;82;21536;-40
2021/06/30 07:49:12;;;;;;;8.70;3.37;;;;;;;27.00;43.11;99871.73;1706077;82;21124;-37
2021/06/30 07:51:39;;;;;;;4.25;2.60;;;;;;;27.03;44.14;99872.87;1710072;83;21576;-37
2021/06/30 07:54:05;;;;;;;3.75;2.60;;;;;;;27.10;43.75;99872.80;1704220;83;21726;-39
2021/06/30 07:56:34;;;;;;;4.85;2.80;;;;;;;27.18;43.96;99866.84;1718955;81;21048;-39
2021/06/30 07:59:05;;;;;;;5.15;2.65;;;;;;;27.24;44.07;99871.75;1718309;82;21128;-36
2021/06/30 08:01:31;;;;;;;4.78;3.00;;;;;;;27.30;42.55;99871.28;1757644;80;21002;-36
2021/06/30 08:03:59;;;;;;;5.62;3.42;;;;;;;27.33;43.01;99868.38;1770427;79;21130;-36
2021/06/30 08:06:28;;;;;;;6.17;2.80;;;;;;;27.35;42.60;99871.80;1763810;81;21064;-36
2021/06/30 08:08:55;;;;;;;5.42;3.25;;;;;;;27.42;42.66;99864.97;1756229;80;21140;-37
2021/06/30 08:11:23;;;;;;;6.28;3.20;;;;;;;27.46;41.34;99870.48;1705991;82;21085;-41
2021/06/30 08:13:54;;;;;;;6.37;2.77;;;;;;;27.45;41.61;99867.44;1756979;80;21069;-42
2021/06/30 08:16:21;;;;;;;7.25;3.60;;;;;;;27.54;42.03;99859.14;1759051;79;21593;-42
2021/06/30 08:18:53;;;;;;;10.90;3.80;;;;;;;27.65;41.64;99871.74;1785298;79;21116;-41
2021/06/30 08:21:24;;;;;;;6.75;3.45;;;;;;;27.69;41.00;99872.77;1720514;81;21090;-41
2021/06/30 08:23:51;;;;;;;5.53;3.08;;;;;;;27.70;41.37;99862.88;1707865;83;21081;-42
2021/06/30 08:26:18;;;;;;;5.78;2.72;;;;;;;27.72;41.05;99864.98;1784887;79;21039;-42
2021/06/30 08:28:47;;;;;;;4.00;2.55;;;;;;;27.74;41.14;99871.08;1780800;79;20981;-42
2021/06/30 08:35:02;;;;;;;8.53;2.70;;;;;;;28.05;40.52;99858.75;1800723;79;22216;-41
2021/06/30 08:37:33;;;;;;;7.90;3.15;;;;;;;28.14;40.60;99859.88;1750358;81;21104;-41
2021/06/30 08:39:58;;;;;;;9.20;3.42;;;;;;;28.21;40.42;99865.13;1728255;82;21546;-42
2021/06/30 08:42:26;;;;;;;5.70;3.35;;;;;;;28.18;41.42;99863.55;1695132;83;22063;-36
2021/06/30 08:44:53;;;;;;;4.45;2.85;;;;;;;28.16;41.87;99861.45;1680303;84;21073;-38
2021/06/30 08:47:19;;;;;;;4.97;2.85;;;;;;;28.22;41.87;99866.33;1674933;84;21405;-36
2021/06/30 08:49:46;;;;;;;6.95;2.95;;;;;;;28.31;40.62;99854.84;1653628;84;21045;-37
2021/06/30 08:52:13;;;;;;;2.80;2.58;;;;;;;28.38;40.88;99857.08;1670347;84;21198;-37
2021/06/30 08:54:42;;;;;;;8.85;2.50;;;;;;;28.34;38.09;99857.30;1676225;84;21067;-37
2021/06/30 08:57:10;;;;;;;5.22;2.77;;;;;;;28.33;38.85;99858.78;1680725;84;21026;-36
2021/06/30 08:59:37;;;;;;;6.70;2.60;;;;;;;28.37;38.73;99856.22;1683819;84;21615;-37
2021/06/30 09:02:04;;;;;;;3.87;2.80;;;;;;;28.36;39.41;99852.68;1696902;83;21061;-34
2021/06/30 09:04:33;;;;;;;4.10;2.67;;;;;;;28.26;38.36;99857.54;1680116;84;21027;-34
2021/06/30 09:07:00;;;;;;;5.28;2.52;;;;;;;28.17;38.08;99855.09;1698151;84;21065;-39
2021/06/30 09:09:28;;;;;;;3.50;2.35;;;;;;;28.18;38.13;99853.25;1682866;84;21449;-40
2021/06/30 09:11:58;;;;;;;5.50;2.52;;;;;;;28.30;38.12;99852.29;1639535;84;21012;-39
2021/06/30 09:14:35;;;;;;;4.17;3.05;;;;;;;28.43;38.35;99853.03;1682675;84;21045;-40
2021/06/30 09:19:57;;;;;;;5.80;2.92;;;;;;;28.72;38.41;99848.45;1684869;84;21022;-40
2021/06/30 09:22:26;;;;;;;4.45;2.72;;;;;;;28.83;39.40;99844.38;1684394;85;21089;-34
2021/06/30 09:24:56;;;;;;;2.92;2.70;;;;;;;28.94;37.75;99844.38;1691887;83;21100;-34
2021/06/30 09:27:44;;;;;;;6.97;2.83;;;;;;;28.92;37.99;99843.59;1691735;84;21135;-34
2021/06/30 09:30:12;;;;;;;5.50;3.05;;;;;;;28.81;38.59;99837.75;1682758;85;21654;-34
2021/06/30 09:33:00;;;;;;;4.45;2.22;;;;;;;28.80;36.97;99837.89;1680939;84;21077;-34
2021/06/30 09:35:31;;;;;;;5.15;2.55;;;;;;;28.79;38.17;99837.04;1674495;85;21065;-34
2021/06/30 09:38:17;;;;;;;4.67;2.55;;;;;;;28.88;37.11;99832.74;1689684;83;21063;-40
2021/06/30 09:40:45;;;;;;;2.95;2.25;;;;;;;28.91;36.50;99833.81;1672720;85;21021;-34
2021/06/30 09:43:29;;;;;;;5.10;3.22;;;;;;;28.78;36.71;99833.98;1676602;84;21575;-40
2021/06/30 09:45:57;;;;;;;5.08;2.58;;;;;;;28.63;37.55;99836.09;1669691;84;20987;-40
2021/06/30 09:48:33;;;;;;;7.08;2.75;;;;;;;28.50;37.75;99830.02;1684808;84;21069;-40
2021/06/30 09:51:02;;;;;;;6.53;2.83;;;;;;;28.50;37.56;99821.95;1685271;85;21044;-40
2021/06/30 09:53:38;;;;;;;4.28;2.58;;;;;;;28.55;36.81;99824.27;1684827;85;21081;-39
2021/06/30 09:56:11;;;;;;;2.70;2.20;;;;;;;28.61;36.86;99822.42;1686222;84;21528;-40
2021/06/30 09:58:38;;;;;;;5.12;2.15;;;;;;;28.71;37.78;99823.88;1685042;84;21674;-40
2021/06/30 10:01:18;;;;;;;3.02;1.95;;;;;;;28.73;35.97;99817.37;1684981;84;21049;-40
2021/06/30 10:03:46;;;;;;;4.25;3.00;;;;;;;28.74;37.29;99812.84;1676337;84;21148;-40
2021/06/30 10:06:26;;;;;;;2.77;2.15;;;;;;;28.81;35.89;99810.84;1688797;84;21066;-38
2021/06/30 10:08:54;;;;;;;5.90;2.22;;;;;;;28.82;36.46;99813.06;1674559;85;21101;-39
2021/06/30 10:11:20;;;;;;;2.98;2.12;;;;;;;28.83;36.87;99808.05;1660059;85;21073;-33
2021/06/30 10:13:48;;;;;;;5.15;2.22;;;;;;;28.90;36.06;99814.12;1678484;84;21132;-34
2021/06/30 10:16:18;;;;;;;5.58;2.37;;;;;;;28.90;35.23;99809.23;1678269;84;21053;-36
2021/06/30 10:18:45;;;;;;;4.78;2.20;;;;;;;28.93;35.14;99808.14;1675423;85;21132;-34
2021/06/30 10:21:12;;;;;;;3.40;2.22;;;;;;;28.99;34.58;99809.85;1685698;84;21006;-33
2021/06/30 10:23:39;;;;;;;2.37;2.00;;;;;;;29.05;33.06;99808.45;1685412;85;21615;-39
2021/06/30 10:26:06;;;;;;;5.08;2.20;;;;;;;29.09;31.15;99809.91;1698024;83;21047;-34
2021/06/30 10:28:33;;;;;;;7.90;2.40;;;;;;;29.06;31.26;99813.73;1680612;84;21068;-34
2021/06/30 10:30:59;;;;;;;3.65;2.35;;;;;;;29.09;34.11;99807.22;1671422;85;21597;-34
2021/06/30 10:33:33;;;;;;;7.37;2.62;;;;;;;29.14;32.55;99800.45;1711953;83;21117;-39
2021/06/30 10:36:01;;;;;;;7.55;2.60;;;;;;;29.27;32.68;99806.14;1730570;81;21493;-39
2021/06/30 10:38:54;;;;;;;4.40;2.25;;;;;;;29.43;33.25;99797.95;1706267;83;21588;-39
2021/06/30 10:41:52;;;;;;;3.35;2.25;;;;;;;29.68;33.25;99793.16;1719609;83;21075;-34
2021/06/30 10:44:24;;;;;;;3.95;2.35;;;;;;;29.97;31.77;99783.84;1719783;83;21022;-39
2021/06/30 10:46:53;;;;;;;5.72;2.40;;;;;;;30.27;30.90;99781.66;1719716;83;21486;-39
2021/06/30 10:49:28;;;;;;;9.25;2.30;;;;;;;30.42;32.21;99780.25;1719830;83;21030;-39
2021/06/30 10:52:01;;;;;;;5.62;2.70;;;;;;;30.47;31.60;99772.59;1718153;82;21625;-34
2021/06/30 10:54:36;;;;;;;5.12;2.52;;;;;;;30.44;32.06;99778.28;1718822;83;21121;-34
2021/06/30 10:57:30;;;;;;;8.93;2.75;;;;;;;30.48;31.89;99766.69;1719630;82;21030;-34
2021/06/30 11:00:08;;;;;;;4.25;2.75;;;;;;;30.60;31.72;99770.12;1718974;83;21090;-39
2021/06/30 11:02:35;;;;;;;5.70;2.40;;;;;;;30.71;33.24;99772.72;1719268;82;21605;-38
2021/06/30 11:05:20;;;;;;;4.78;2.70;;;;;;;30.72;31.95;99776.61;1715159;83;21077;-39
2021/06/30 11:07:46;;;;;;;3.72;2.45;;;;;;;30.67;32.47;99774.83;1713320;82;21117;-39
2021/06/30 11:10:24;;;;;;;4.30;2.30;;;;;;;30.64;31.28;99772.40;1713082;83;21033;-39
2021/06/30 11:12:58;;;;;;;5.87;2.20;;;;;;;30.66;31.82;99773.59;1718248;82;21129;-32
2021/06/30 11:15:39;;;;;;;2.83;2.40;;;;;;;30.73;32.20;99770.72;1718635;83;21526;-34
2021/06/30 11:18:20;;;;;;;7.17;2.50;;;;;;;30.88;32.27;99772.51;1724314;83;21559;-33
2021/06/30 11:20:54;;;;;;;13.43;3.47;;;;;;;30.99;31.19;99771.86;1731320;82;21021;-34
2021/06/30 11:23:26;;;;;;;6.08;2.20;;;;;;;31.01;30.93;99773.06;1726529;82;21143;-38
2021/06/30 11:25:54;;;;;;;3.40;2.27;;;;;;;30.95;30.96;99777.19;1725436;83;21697;-38
2021/06/30 11:28:35;;;;;;;8.53;2.47;;;;;;;30.85;31.13;99768.26;1725540;83;21584;-38
2021/06/30 11:31:30;;;;;;;3.47;2.20;;;;;;;30.76;31.31;99765.05;1728844;82;21111;-33
2021/06/30 11:34:17;;;;;;;8.45;2.33;;;;;;;30.62;30.32;99762.25;1722498;83;21086;-33
2021/06/30 11:36:44;;;;;;;5.10;2.50;;;;;;;30.41;31.26;99771.80;1718895;82;21033;-34
2021/06/30 11:39:14;;;;;;;3.85;2.50;;;;;;;30.19;31.23;99765.29;1716935;82;21050;-34
2021/06/30 11:41:50;;;;;;;3.90;2.45;;;;;;;30.03;32.44;99760.88;1724620;82;21018;-39
2021/06/30 11:44:21;;;;;;;5.85;2.40;;;;;;;29.96;31.59;99763.27;1716730;83;21050;-34
2021/06/30 11:46:51;;;;;;;4.17;2.55;;;;;;;29.97;31.99;99766.32;1661809;83;20990;-34
2021/06/30 11:49:19;;;;;;;3.35;2.37;;;;;;;30.00;31.64;99762.52;1716788;82;21101;-39
2021/06/30 11:51:58;;;;;;;3.25;2.10;;;;;;;29.97;31.83;99766.32;1717017;83;21052;-39
2021/06/30 11:54:26;;;;;;;2.65;2.20;;;;;;;29.92;32.06;99761.86;1732371;82;21642;-39
2021/06/30 11:56:57;;;;;;;5.90;2.35;;;;;;;29.88;32.52;99767.16;1709049;82;20986;-39
2021/06/30 11:59:26;;;;;;;2.98;2.10;;;;;;;29.88;33.20;99775.24;1724072;82;21059;-39
2021/06/30 12:01:54;;;;;;;5.33;2.40;;;;;;;29.89;31.34;99767.52;1708526;83;21081;-37
2021/06/30 12:04:27;;;;;;;10.35;2.80;;;;;;;29.86;31.87;99770.00;1726948;82;21675;-35
2021/06/30 12:07:03;;;;;;;2.87;2.58;;;;;;;29.83;32.13;99769.41;1724899;82;21114;-34
2021/06/30 12:09:32;;;;;;;8.95;3.00;;;;;;;29.82;32.26;99757.77;1717620;83;21088;-35
2021/06/30 12:12:06;;;;;;;2.52;2.20;;;;;;;29.85;31.87;99748.55;1718701;82;21089;-34
2021/06/30 12:14:49;;;;;;;4.05;2.70;;;;;;;29.90;32.12;99758.43;1707549;82;21085;-34
2021/06/30 12:17:13;;;;;;;5.37;2.98;;;;;;;29.88;31.40;99753.18;1720253;82;21065;-33
2021/06/30 12:19:45;;;;;;;4.85;3.02;;;;;;;29.81;31.77;99745.28;1717587;83;21069;-33
2021/06/30 12:22:21;;;;;;;5.97;2.83;;;;;;;29.80;32.33;99746.75;1719766;82;21006;-33
2021/06/30 12:25:01;;;;;;;10.32;3.33;;;;;;;29.82;33.03;99740.25;1682436;85;21508;-33
2021/06/30 12:27:39;;;;;;;5.55;3.25;;;;;;;29.84;34.44;99753.58;1718664;82;21070;-33
2021/06/30 12:30:14;;;;;;;3.55;2.90;;;;;;;29.82;32.09;99744.79;1716749;83;21074;-34
2021/06/30 12:33:00;;;;;;;7.05;3.45;;;;;;;29.79;33.37;99741.00;1715372;82;21092;-34
2021/06/30 12:35:33;;;;;;;5.75;2.95;;;;;;;29.83;33.80;99729.81;1716722;82;21104;-34
2021/06/30 12:38:04;;;;;;;4.78;3.22;;;;;;;29.88;32.60;99732.96;1719066;82;21045;-34
2021/06/30 12:40:32;;;;;;;4.10;3.37;;;;;;;29.94;32.53;99735.11;1716502;83;21010;-34
2021/06/30 12:43:16;;;;;;;3.85;3.55;;;;;;;29.95;31.58;99727.87;1739051;81;21052;-34
2021/06/30 12:45:50;;;;;;;6.78;3.27;;;;;;;29.88;31.74;99735.66;1741654;82;21037;-34
2021/06/30 12:48:19;;;;;;;10.50;3.37;;;;;;;29.91;32.62;99725.08;1742254;81;21061;-34
2021/06/30 12:50:52;;;;;;;6.72;3.37;;;;;;;29.97;32.04;99727.72;1729145;82;21037;-33
2021/06/30 12:53:28;;;;;;;5.53;3.40;;;;;;;29.99;31.64;99727.11;1715770;82;21061;-35
2021/06/30 12:56:09;;;;;;;4.40;3.12;;;;;;;30.04;33.08;99723.01;1724540;81;21040;-34
2021/06/30 12:58:46;;;;;;;4.80;3.20;;;;;;;30.15;32.40;99736.88;1741989;81;21139;-34
2021/06/30 13:01:15;;;;;;;5.80;3.50;;;;;;;30.25;33.13;99733.72;1738835;82;21085;-39
2021/06/30 13:03:55;;;;;;;4.70;3.30;;;;;;;30.27;32.81;99731.75;1717831;83;21085;-39
2021/06/30 13:06:24;;;;;;;6.45;3.75;;;;;;;30.25;33.43;99723.42;1717851;83;21013;-34
2021/06/30 13:09:07;;;;;;;3.72;3.02;;;;;;;30.20;32.51;99721.98;1717973;82;21060;-34
2021/06/30 13:11:56;;;;;;;3.75;3.20;;;;;;;30.13;32.44;99720.84;1717566;83;21489;-38
2021/06/30 13:14:36;;;;;;;8.43;3.08;;;;;;;30.04;32.88;99719.47;1717235;82;21120;-34
2021/06/30 13:17:09;;;;;;;5.33;2.98;;;;;;;30.08;33.52;99714.13;1716423;82;21073;-38
2021/06/30 13:19:46;;;;;;;;;;;;;;;30.12;32.87;99714.25;1719615;83;21415;-39
2021/06/30 13:22:19;;;;;;;5.95;2.90;;;;;;;30.04;32.59;99720.81;1716923;83;20415;-39
2021/06/30 13:24:51;;;;;;;5.53;2.80;;;;;;;29.95;33.61;99707.64;1682930;85;21604;-33
2021/06/30 13:35:45;;;;;;;3.10;2.80;;;;;;;30.20;32.73;99693.66;1688088;85;21068;-39
2021/06/30 13:38:22;;;;;;;6.12;3.40;;;;;;;30.26;33.03;99684.16;1656518;86;21133;-38
2021/06/30 13:40:56;;;;;;;4.33;3.67;;;;;;;30.41;33.41;99687.31;1670797;86;21057;-38
2021/06/30 13:43:23;;;;;;;4.53;3.02;;;;;;;30.53;32.58;99684.82;1672556;86;21058;-39
2021/06/30 13:45:54;;;;;;;8.93;3.90;;;;;;;30.49;32.37;99679.34;1672733;86;21045;-39
2021/06/30 13:48:25;;;;;;;4.12;3.50;;;;;;;30.42;31.51;99679.06;1666800;84;21138;-34
2021/06/30 13:50:56;;;;;;;4.33;3.30;;;;;;;30.33;32.47;99677.23;1684154;85;21073;-33
2021/06/30 13:53:24;;;;;;;5.47;4.22;;;;;;;30.28;32.34;99674.60;1667467;84;21084;-39
2021/06/30 13:55:53;;;;;;;7.87;3.42;;;;;;;30.25;32.63;99671.67;1682004;85;21058;-33
2021/06/30 13:58:20;;;;;;;7.15;3.30;;;;;;;30.28;33.06;99663.81;1725304;83;21044;-34
2021/06/30 14:00:47;;;;;;;4.62;3.47;;;;;;;30.35;32.52;99663.09;1724671;83;21053;-34
2021/06/30 14:03:13;;;;;;;6.65;3.75;;;;;;;30.38;32.34;99660.13;1725450;83;21048;-38
2021/06/30 14:05:40;;;;;;;5.42;3.90;;;;;;;30.41;32.93;99658.98;1725321;83;21146;-34
2021/06/30 14:08:12;;;;;;;4.67;3.45;;;;;;;30.46;33.03;99660.75;1724882;83;21123;-39
2021/06/30 14:10:41;;;;;;;4.08;3.70;;;;;;;30.50;33.02;99658.14;1725121;83;21084;-34
2021/06/30 14:13:08;;;;;;;6.08;3.75;;;;;;;30.46;32.82;99657.55;1726417;81;21529;-33
2021/06/30 14:15:36;;;;;;;7.85;3.58;;;;;;;30.37;32.90;99655.70;1725259;83;21064;-33
2021/06/30 14:18:05;;;;;;;3.60;3.27;;;;;;;30.30;33.36;99654.56;1690104;85;21053;-39
2021/06/30 14:20:34;;;;;;;4.15;3.30;;;;;;;30.32;32.96;99659.81;1725318;82;21104;-34
2021/06/30 14:23:06;;;;;;;5.65;3.30;;;;;;;30.30;33.31;99660.46;1725350;83;21085;-34
2021/06/30 14:25:33;;;;;;;8.45;3.55;;;;;;;30.25;33.62;99654.64;1725073;83;21044;-34
2021/06/30 14:28:00;;;;;;;3.20;3.00;;;;;;;30.24;33.40;99652.94;1724783;83;21060;-34
2021/06/30 14:30:26;;;;;;;6.37;3.30;;;;;;;30.24;33.39;99652.94;1724603;83;21029;-34
2021/06/30 14:32:53;;;;;;;6.60;4.17;;;;;;;30.23;33.72;99656.63;1724796;83;21702;-34
2021/06/30 14:35:21;;;;;;;3.85;3.52;;;;;;;30.23;33.60;99652.59;1727299;82;21470;-39
2021/06/30 14:37:48;;;;;;;4.83;3.20;;;;;;;30.21;33.62;99654.09;1730438;83;21601;-39
2021/06/30 14:40:16;;;;;;;5.05;3.42;;;;;;;30.20;33.63;99641.56;1730506;82;21111;-34
2021/06/30 14:42:44;;;;;;;9.23;3.50;;;;;;;30.22;33.74;99641.45;1730749;83;21619;-34
2021/06/30 14:45:11;;;;;;;6.28;3.70;;;;;;;30.26;33.93;99645.55;1730848;82;21068;-34
2021/06/30 14:47:38;;;;;;;6.75;3.42;;;;;;;30.25;34.74;99645.20;1730823;83;21616;-39
2021/06/30 14:50:06;;;;;;;5.35;3.60;;;;;;;30.22;33.99;99638.75;1730758;83;21057;-34
2021/06/30 14:52:33;;;;;;;3.87;3.40;;;;;;;30.20;34.42;99636.17;1725941;81;21080;-39
